CCA8904 ZBAA-ZYTL
Flight info
| Callsign | CCA8904 |
|---|---|
| Flight time | 0h 53m |
| Altitude | 22600 |
| Route | MUGLO2G MUGLO W34 ANRAT W575 INTIV INT17A |
| Aircraft | A339/H-SADE1E2E3GHIJ3J5M1P2RWXY/LB2D1 |
Departure
| Time | 2026-05-07 23:25 |
|---|---|
| Airport | Beijing Capital International Airport (ZBAA) |
Arrival
| Time | 2026-05-08 00:19 |
|---|---|
| Airport | Dalian Zhoushuizi International Airport (ZYTL) |
| Time | Latitude | Longitude | Altitude | Speed | Heading |
|---|---|---|---|---|---|
| 2026-05-07 23:01 | 40.05534 | 116.60725 | 133 ft | 0 kts | 109° |
| 2026-05-07 23:15 | 40.05535 | 116.60722 | 133 ft | 2 kts | 110° |
| 2026-05-07 23:15 | 40.05541 | 116.60703 | 133 ft | 2 kts | 119° |
| 2026-05-07 23:15 | 40.05548 | 116.60687 | 133 ft | 2 kts | 126° |
| 2026-05-07 23:16 | 40.05558 | 116.60672 | 133 ft | 2 kts | 134° |
| 2026-05-07 23:16 | 40.05569 | 116.60658 | 133 ft | 2 kts | 141° |
| 2026-05-07 23:16 | 40.05581 | 116.60647 | 133 ft | 2 kts | 148° |
| 2026-05-07 23:16 | 40.05594 | 116.60637 | 133 ft | 2 kts | 156° |
| 2026-05-07 23:17 | 40.05608 | 116.60630 | 133 ft | 2 kts | 163° |
| 2026-05-07 23:17 | 40.05623 | 116.60626 | 133 ft | 2 kts | 169° |
| 2026-05-07 23:17 | 40.05638 | 116.60621 | 133 ft | 2 kts | 167° |
| 2026-05-07 23:17 | 40.05653 | 116.60617 | 133 ft | 2 kts | 167° |
| 2026-05-07 23:18 | 40.05661 | 116.60614 | 133 ft | 0 kts | 167° |
| 2026-05-07 23:20 | 40.05660 | 116.60615 | 133 ft | 1 kts | 167° |
| 2026-05-07 23:20 | 40.05643 | 116.60619 | 133 ft | 3 kts | 167° |
| 2026-05-07 23:20 | 40.05615 | 116.60620 | 133 ft | 4 kts | 195° |
| 2026-05-07 23:21 | 40.05575 | 116.60606 | 133 ft | 7 kts | 195° |
| 2026-05-07 23:21 | 40.05520 | 116.60585 | 133 ft | 8 kts | 199° |
| 2026-05-07 23:21 | 40.05477 | 116.60536 | 133 ft | 8 kts | 229° |
| 2026-05-07 23:21 | 40.05467 | 116.60520 | 133 ft | 0 kts | 231° |
| 2026-05-07 23:22 | 40.05464 | 116.60516 | 133 ft | 2 kts | 231° |
| 2026-05-07 23:22 | 40.05439 | 116.60476 | 133 ft | 7 kts | 231° |
| 2026-05-07 23:22 | 40.05403 | 116.60413 | 133 ft | 9 kts | 235° |
| 2026-05-07 23:22 | 40.05385 | 116.60356 | 133 ft | 3 kts | 297° |
| 2026-05-07 23:23 | 40.05408 | 116.60321 | 133 ft | 6 kts | 310° |
| 2026-05-07 23:23 | 40.05443 | 116.60278 | 133 ft | 7 kts | 326° |
| 2026-05-07 23:23 | 40.05497 | 116.60255 | 133 ft | 9 kts | 347° |
| 2026-05-07 23:23 | 40.05543 | 116.60229 | 133 ft | 3 kts | 295° |
| 2026-05-07 23:24 | 40.05540 | 116.60182 | 133 ft | 6 kts | 262° |
| 2026-05-07 23:24 | 40.05535 | 116.60117 | 133 ft | 6 kts | 278° |
| 2026-05-07 23:24 | 40.05558 | 116.60055 | 133 ft | 8 kts | 306° |
| 2026-05-07 23:24 | 40.05607 | 116.60014 | 133 ft | 9 kts | 340° |
| 2026-05-07 23:25 | 40.05773 | 116.59978 | 133 ft | 55 kts | 353° |
| 2026-05-07 23:25 | 40.06394 | 116.59876 | 133 ft | 121 kts | 352° |
| 2026-05-07 23:25 | 40.07404 | 116.59730 | 285 ft | 159 kts | 354° |
| 2026-05-07 23:25 | 40.08469 | 116.59579 | 1029 ft | 151 kts | 354° |
| 2026-05-07 23:26 | 40.09515 | 116.59419 | 1684 ft | 152 kts | 353° |
| 2026-05-07 23:26 | 40.10579 | 116.59248 | 2213 ft | 162 kts | 353° |
| 2026-05-07 23:26 | 40.11758 | 116.59056 | 2619 ft | 177 kts | 353° |
| 2026-05-07 23:26 | 40.13038 | 116.58852 | 2957 ft | 194 kts | 353° |
| 2026-05-07 23:27 | 40.15939 | 116.58395 | 3765 ft | 228 kts | 353° |
| 2026-05-07 23:27 | 40.17585 | 116.58136 | 4185 ft | 247 kts | 353° |
| 2026-05-07 23:27 | 40.19356 | 116.57856 | 4732 ft | 261 kts | 353° |
| 2026-05-07 23:28 | 40.21196 | 116.57571 | 5561 ft | 263 kts | 354° |
| 2026-05-07 23:28 | 40.23002 | 116.57805 | 6354 ft | 268 kts | 19° |
| 2026-05-07 23:28 | 40.24529 | 116.59152 | 7141 ft | 275 kts | 46° |
| 2026-05-07 23:28 | 40.25456 | 116.61382 | 7914 ft | 285 kts | 73° |
| 2026-05-07 23:29 | 40.25728 | 116.63947 | 8709 ft | 290 kts | 81° |
| 2026-05-07 23:29 | 40.25930 | 116.66597 | 9420 ft | 296 kts | 80° |
| 2026-05-07 23:29 | 40.26141 | 116.69276 | 10142 ft | 300 kts | 79° |
| 2026-05-07 23:29 | 40.26369 | 116.71998 | 10789 ft | 309 kts | 79° |
| 2026-05-07 23:30 | 40.26620 | 116.74861 | 11182 ft | 327 kts | 79° |
| 2026-05-07 23:30 | 40.26886 | 116.77866 | 11535 ft | 345 kts | 79° |
| 2026-05-07 23:30 | 40.27169 | 116.81058 | 11902 ft | 363 kts | 80° |
| 2026-05-07 23:30 | 40.27463 | 116.84425 | 12227 ft | 380 kts | 80° |
| 2026-05-07 23:31 | 40.27760 | 116.87888 | 12927 ft | 386 kts | 80° |
| 2026-05-07 23:31 | 40.28057 | 116.91377 | 13709 ft | 390 kts | 80° |
| 2026-05-07 23:31 | 40.28358 | 116.94898 | 14463 ft | 393 kts | 79° |
| 2026-05-07 23:31 | 40.28663 | 116.98483 | 15216 ft | 398 kts | 79° |
| 2026-05-07 23:32 | 40.28970 | 117.02084 | 15916 ft | 403 kts | 79° |
| 2026-05-07 23:32 | 40.29273 | 117.05707 | 16596 ft | 408 kts | 80° |
| 2026-05-07 23:32 | 40.29105 | 117.09495 | 17215 ft | 425 kts | 101° |
| 2026-05-07 23:32 | 40.27821 | 117.13042 | 17898 ft | 437 kts | 124° |
| 2026-05-07 23:33 | 40.25545 | 117.15819 | 18575 ft | 444 kts | 148° |
| 2026-05-07 23:33 | 40.22661 | 117.17328 | 19170 ft | 445 kts | 171° |
| 2026-05-07 23:33 | 40.19627 | 117.17862 | 19779 ft | 447 kts | 178° |
| 2026-05-07 23:33 | 40.16442 | 117.18234 | 20378 ft | 453 kts | 179° |
| 2026-05-07 23:34 | 40.13232 | 117.18645 | 20924 ft | 460 kts | 178° |
| 2026-05-07 23:34 | 40.10036 | 117.19131 | 21463 ft | 466 kts | 176° |
| 2026-05-07 23:34 | 40.06797 | 117.19680 | 22001 ft | 472 kts | 176° |
| 2026-05-07 23:34 | 40.03536 | 117.20267 | 22503 ft | 477 kts | 176° |
| 2026-05-07 23:35 | 40.00239 | 117.20873 | 22724 ft | 480 kts | 176° |
| 2026-05-07 23:35 | 39.96923 | 117.21479 | 22737 ft | 479 kts | 176° |
| 2026-05-07 23:35 | 39.93653 | 117.22077 | 22731 ft | 479 kts | 176° |
| 2026-05-07 23:35 | 39.90335 | 117.22681 | 22735 ft | 479 kts | 176° |
| 2026-05-07 23:36 | 39.87043 | 117.23281 | 22731 ft | 479 kts | 176° |
| 2026-05-07 23:36 | 39.83746 | 117.23880 | 22732 ft | 478 kts | 176° |
| 2026-05-07 23:36 | 39.80435 | 117.24482 | 22732 ft | 479 kts | 176° |
| 2026-05-07 23:36 | 39.77172 | 117.25078 | 22731 ft | 478 kts | 176° |
| 2026-05-07 23:37 | 39.73870 | 117.25677 | 22733 ft | 478 kts | 176° |
| 2026-05-07 23:37 | 39.70600 | 117.26272 | 22729 ft | 478 kts | 176° |
| 2026-05-07 23:37 | 39.67270 | 117.26876 | 22734 ft | 477 kts | 176° |
| 2026-05-07 23:37 | 39.64004 | 117.27468 | 22734 ft | 477 kts | 176° |
| 2026-05-07 23:38 | 39.60703 | 117.28066 | 22728 ft | 478 kts | 176° |
| 2026-05-07 23:38 | 39.57428 | 117.28659 | 22731 ft | 477 kts | 176° |
| 2026-05-07 23:38 | 39.54170 | 117.29250 | 22734 ft | 477 kts | 176° |
| 2026-05-07 23:38 | 39.50854 | 117.29850 | 22734 ft | 477 kts | 176° |
| 2026-05-07 23:39 | 39.47595 | 117.30437 | 22733 ft | 477 kts | 176° |
| 2026-05-07 23:39 | 39.44281 | 117.31149 | 22731 ft | 479 kts | 172° |
| 2026-05-07 23:39 | 39.41069 | 117.32138 | 22729 ft | 481 kts | 167° |
| 2026-05-07 23:39 | 39.37855 | 117.33460 | 22735 ft | 482 kts | 163° |
| 2026-05-07 23:40 | 39.34729 | 117.34898 | 22736 ft | 482 kts | 162° |
| 2026-05-07 23:40 | 39.31564 | 117.36376 | 22731 ft | 482 kts | 162° |
| 2026-05-07 23:40 | 39.28423 | 117.37840 | 22735 ft | 481 kts | 163° |
| 2026-05-07 23:40 | 39.25284 | 117.39291 | 22731 ft | 481 kts | 163° |
| 2026-05-07 23:41 | 39.22131 | 117.40736 | 22736 ft | 481 kts | 163° |
| 2026-05-07 23:41 | 39.18969 | 117.42180 | 22735 ft | 481 kts | 163° |
| 2026-05-07 23:41 | 39.15789 | 117.43640 | 22734 ft | 481 kts | 161° |
| 2026-05-07 23:41 | 39.12844 | 117.45721 | 22718 ft | 486 kts | 141° |
| 2026-05-07 23:42 | 39.10614 | 117.48888 | 22731 ft | 484 kts | 120° |
| 2026-05-07 23:42 | 39.09311 | 117.52846 | 22732 ft | 476 kts | 98° |
| 2026-05-07 23:42 | 39.08973 | 117.56986 | 22752 ft | 468 kts | 86° |
| 2026-05-07 23:42 | 39.08950 | 117.61150 | 22755 ft | 466 kts | 84° |
| 2026-05-07 23:43 | 39.08933 | 117.65344 | 22748 ft | 467 kts | 85° |
| 2026-05-07 23:43 | 39.08844 | 117.69515 | 22739 ft | 469 kts | 87° |
| 2026-05-07 23:43 | 39.08686 | 117.73658 | 22735 ft | 469 kts | 88° |
| 2026-05-07 23:43 | 39.08480 | 117.77853 | 22743 ft | 471 kts | 88° |
| 2026-05-07 23:44 | 39.08252 | 117.82033 | 22736 ft | 471 kts | 89° |
| 2026-05-07 23:44 | 39.08014 | 117.86230 | 22737 ft | 472 kts | 89° |
| 2026-05-07 23:44 | 39.07769 | 117.90471 | 22742 ft | 472 kts | 89° |
| 2026-05-07 23:44 | 39.07526 | 117.94668 | 22735 ft | 474 kts | 89° |
| 2026-05-07 23:45 | 39.07281 | 117.98879 | 22737 ft | 473 kts | 88° |
| 2026-05-07 23:45 | 39.06951 | 118.03109 | 22735 ft | 476 kts | 92° |
| 2026-05-07 23:45 | 39.06426 | 118.07297 | 22746 ft | 478 kts | 96° |
| 2026-05-07 23:45 | 39.05780 | 118.11462 | 22740 ft | 478 kts | 97° |
| 2026-05-07 23:46 | 39.05111 | 118.15627 | 22736 ft | 478 kts | 97° |
| 2026-05-07 23:46 | 39.04431 | 118.19839 | 22742 ft | 478 kts | 97° |
| 2026-05-07 23:46 | 39.03764 | 118.23981 | 22744 ft | 478 kts | 96° |
| 2026-05-07 23:46 | 39.03098 | 118.28132 | 22741 ft | 478 kts | 96° |
| 2026-05-07 23:47 | 39.02433 | 118.32306 | 22733 ft | 478 kts | 96° |
| 2026-05-07 23:47 | 39.01763 | 118.36495 | 22738 ft | 478 kts | 96° |
| 2026-05-07 23:47 | 39.01094 | 118.40668 | 22741 ft | 478 kts | 96° |
| 2026-05-07 23:47 | 39.00418 | 118.44875 | 22743 ft | 479 kts | 96° |
| 2026-05-07 23:48 | 38.99751 | 118.49021 | 22738 ft | 479 kts | 96° |
| 2026-05-07 23:48 | 38.99071 | 118.53217 | 22736 ft | 478 kts | 96° |
| 2026-05-07 23:48 | 38.98389 | 118.57416 | 22746 ft | 479 kts | 96° |
| 2026-05-07 23:48 | 38.97715 | 118.61556 | 22741 ft | 479 kts | 96° |
| 2026-05-07 23:49 | 38.97030 | 118.65757 | 22747 ft | 478 kts | 97° |
| 2026-05-07 23:49 | 38.96349 | 118.69936 | 22737 ft | 478 kts | 97° |
| 2026-05-07 23:49 | 38.95668 | 118.74106 | 22741 ft | 479 kts | 97° |
| 2026-05-07 23:49 | 38.94984 | 118.78277 | 22736 ft | 479 kts | 97° |
| 2026-05-07 23:50 | 38.94301 | 118.82452 | 22737 ft | 480 kts | 97° |
| 2026-05-07 23:50 | 38.93615 | 118.86603 | 22749 ft | 479 kts | 97° |
| 2026-05-07 23:50 | 38.92922 | 118.90810 | 22744 ft | 480 kts | 96° |
| 2026-05-07 23:50 | 38.92237 | 118.94960 | 22743 ft | 480 kts | 96° |
| 2026-05-07 23:51 | 38.91544 | 118.99122 | 22728 ft | 481 kts | 97° |
| 2026-05-07 23:51 | 38.90849 | 119.03324 | 22736 ft | 482 kts | 97° |
| 2026-05-07 23:51 | 38.90153 | 119.07496 | 22727 ft | 481 kts | 97° |
| 2026-05-07 23:51 | 38.89449 | 119.11684 | 22744 ft | 481 kts | 97° |
| 2026-05-07 23:52 | 38.88737 | 119.15917 | 22729 ft | 481 kts | 97° |
| 2026-05-07 23:52 | 38.88033 | 119.20088 | 22750 ft | 481 kts | 97° |
| 2026-05-07 23:52 | 38.87332 | 119.24249 | 22732 ft | 480 kts | 97° |
| 2026-05-07 23:52 | 38.86625 | 119.28441 | 22732 ft | 481 kts | 97° |
| 2026-05-07 23:53 | 38.85920 | 119.32607 | 22731 ft | 480 kts | 97° |
| 2026-05-07 23:53 | 38.85213 | 119.36781 | 22706 ft | 480 kts | 96° |
| 2026-05-07 23:53 | 38.84502 | 119.40971 | 22737 ft | 480 kts | 97° |
| 2026-05-07 23:53 | 38.83802 | 119.45084 | 22730 ft | 480 kts | 97° |
| 2026-05-07 23:54 | 38.83083 | 119.49300 | 22733 ft | 480 kts | 97° |
| 2026-05-07 23:54 | 38.82375 | 119.53439 | 22723 ft | 480 kts | 97° |
| 2026-05-07 23:54 | 38.81654 | 119.57642 | 22740 ft | 481 kts | 97° |
| 2026-05-07 23:54 | 38.80942 | 119.61778 | 22715 ft | 480 kts | 96° |
| 2026-05-07 23:55 | 38.80222 | 119.65968 | 22731 ft | 481 kts | 97° |
| 2026-05-07 23:55 | 38.79501 | 119.70151 | 22726 ft | 480 kts | 97° |
| 2026-05-07 23:55 | 38.78783 | 119.74293 | 22731 ft | 480 kts | 97° |
| 2026-05-07 23:55 | 38.78044 | 119.78449 | 22719 ft | 482 kts | 100° |
| 2026-05-07 23:56 | 38.76777 | 119.82448 | 22704 ft | 491 kts | 117° |
| 2026-05-07 23:56 | 38.74752 | 119.85944 | 22725 ft | 494 kts | 133° |
| 2026-05-07 23:56 | 38.72204 | 119.88894 | 22714 ft | 496 kts | 140° |
| 2026-05-07 23:56 | 38.69526 | 119.91722 | 22703 ft | 496 kts | 141° |
| 2026-05-07 23:57 | 38.66946 | 119.94617 | 22735 ft | 497 kts | 136° |
| 2026-05-07 23:57 | 38.64535 | 119.97794 | 22720 ft | 496 kts | 130° |
| 2026-05-07 23:57 | 38.62331 | 120.01173 | 22723 ft | 496 kts | 127° |
| 2026-05-07 23:57 | 38.60221 | 120.04640 | 22727 ft | 496 kts | 126° |
| 2026-05-07 23:58 | 38.58141 | 120.08096 | 22724 ft | 496 kts | 126° |
| 2026-05-07 23:58 | 38.56024 | 120.11581 | 22731 ft | 495 kts | 126° |
| 2026-05-07 23:58 | 38.54140 | 120.15203 | 22706 ft | 492 kts | 115° |
| 2026-05-07 23:58 | 38.52792 | 120.19172 | 22728 ft | 486 kts | 103° |
| 2026-05-07 23:59 | 38.51971 | 120.23357 | 22728 ft | 480 kts | 96° |
| 2026-05-07 23:59 | 38.51349 | 120.27496 | 22720 ft | 480 kts | 95° |
| 2026-05-07 23:59 | 38.50727 | 120.31696 | 22747 ft | 480 kts | 95° |
| 2026-05-07 23:59 | 38.50084 | 120.35875 | 22726 ft | 480 kts | 96° |
| 2026-05-08 00:00 | 38.49421 | 120.40030 | 22733 ft | 481 kts | 96° |
| 2026-05-08 00:00 | 38.48743 | 120.44192 | 22728 ft | 481 kts | 96° |
| 2026-05-08 00:00 | 38.48059 | 120.48351 | 22728 ft | 481 kts | 96° |
| 2026-05-08 00:00 | 38.47374 | 120.52499 | 22723 ft | 480 kts | 96° |
| 2026-05-08 00:01 | 38.46691 | 120.56672 | 22731 ft | 480 kts | 96° |
| 2026-05-08 00:01 | 38.46022 | 120.60788 | 22720 ft | 479 kts | 96° |
| 2026-05-08 00:01 | 38.45350 | 120.64934 | 22734 ft | 479 kts | 95° |
| 2026-05-08 00:01 | 38.44674 | 120.69099 | 22723 ft | 478 kts | 96° |
| 2026-05-08 00:02 | 38.43995 | 120.73275 | 22729 ft | 479 kts | 96° |
| 2026-05-08 00:02 | 38.43319 | 120.77419 | 22740 ft | 479 kts | 96° |
| 2026-05-08 00:02 | 38.42653 | 120.81515 | 22738 ft | 479 kts | 96° |
| 2026-05-08 00:02 | 38.41975 | 120.85653 | 22740 ft | 479 kts | 97° |
| 2026-05-08 00:03 | 38.41289 | 120.89801 | 22722 ft | 480 kts | 97° |
| 2026-05-08 00:03 | 38.40604 | 120.93967 | 22697 ft | 476 kts | 95° |
| 2026-05-08 00:03 | 38.40303 | 120.98061 | 22394 ft | 463 kts | 81° |
| 2026-05-08 00:03 | 38.40753 | 121.02057 | 22074 ft | 447 kts | 69° |
| 2026-05-08 00:04 | 38.41561 | 121.05868 | 21595 ft | 443 kts | 66° |
| 2026-05-08 00:04 | 38.42424 | 121.09614 | 20774 ft | 444 kts | 64° |
| 2026-05-08 00:04 | 38.43787 | 121.13048 | 20102 ft | 427 kts | 48° |
| 2026-05-08 00:04 | 38.45535 | 121.16098 | 19647 ft | 419 kts | 45° |
| 2026-05-08 00:05 | 38.47277 | 121.19050 | 19156 ft | 415 kts | 46° |
| 2026-05-08 00:05 | 38.48985 | 121.21999 | 18645 ft | 411 kts | 46° |
| 2026-05-08 00:05 | 38.50648 | 121.24935 | 18184 ft | 407 kts | 47° |
| 2026-05-08 00:05 | 38.52271 | 121.27858 | 17818 ft | 400 kts | 47° |
| 2026-05-08 00:06 | 38.53860 | 121.30752 | 17424 ft | 393 kts | 48° |
| 2026-05-08 00:06 | 38.55402 | 121.33581 | 16894 ft | 380 kts | 48° |
| 2026-05-08 00:06 | 38.56879 | 121.36305 | 16421 ft | 368 kts | 48° |
| 2026-05-08 00:06 | 38.58301 | 121.38933 | 15979 ft | 357 kts | 48° |
| 2026-05-08 00:07 | 38.59694 | 121.41508 | 15483 ft | 348 kts | 47° |
| 2026-05-08 00:07 | 38.61047 | 121.44016 | 15013 ft | 337 kts | 47° |
| 2026-05-08 00:07 | 38.62366 | 121.46454 | 14590 ft | 331 kts | 47° |
| 2026-05-08 00:07 | 38.63645 | 121.48824 | 14078 ft | 322 kts | 48° |
| 2026-05-08 00:08 | 38.64894 | 121.51143 | 13580 ft | 309 kts | 47° |
| 2026-05-08 00:08 | 38.66101 | 121.53387 | 12999 ft | 302 kts | 47° |
| 2026-05-08 00:08 | 38.67263 | 121.55542 | 12446 ft | 294 kts | 47° |
| 2026-05-08 00:08 | 38.68399 | 121.57657 | 11924 ft | 287 kts | 47° |
| 2026-05-08 00:09 | 38.69529 | 121.59755 | 11305 ft | 284 kts | 47° |
| 2026-05-08 00:09 | 38.70652 | 121.61839 | 10659 ft | 283 kts | 48° |
| 2026-05-08 00:09 | 38.71755 | 121.63886 | 10053 ft | 280 kts | 48° |
| 2026-05-08 00:09 | 38.72849 | 121.65924 | 9398 ft | 279 kts | 49° |
| 2026-05-08 00:10 | 38.73946 | 121.67969 | 8765 ft | 278 kts | 49° |
| 2026-05-08 00:10 | 38.75029 | 121.69976 | 8141 ft | 276 kts | 49° |
| 2026-05-08 00:10 | 38.76120 | 121.71981 | 7531 ft | 274 kts | 50° |
| 2026-05-08 00:10 | 38.77047 | 121.74121 | 6896 ft | 278 kts | 59° |
| 2026-05-08 00:11 | 38.77821 | 121.76360 | 6318 ft | 277 kts | 61° |
| 2026-05-08 00:11 | 38.78627 | 121.78575 | 5729 ft | 271 kts | 50° |
| 2026-05-08 00:11 | 38.80019 | 121.80068 | 5112 ft | 254 kts | 16° |
| 2026-05-08 00:11 | 38.81696 | 121.80469 | 4556 ft | 245 kts | 359° |
| 2026-05-08 00:12 | 38.83363 | 121.80809 | 3946 ft | 250 kts | 20° |
| 2026-05-08 00:12 | 38.84869 | 121.81924 | 3565 ft | 244 kts | 30° |
| 2026-05-08 00:12 | 38.86223 | 121.83141 | 3334 ft | 232 kts | 31° |
| 2026-05-08 00:12 | 38.87585 | 121.84061 | 3101 ft | 214 kts | 6° |
| 2026-05-08 00:13 | 38.89017 | 121.83878 | 2981 ft | 203 kts | 333° |
| 2026-05-08 00:13 | 38.90048 | 121.82715 | 2860 ft | 199 kts | 308° |
| 2026-05-08 00:13 | 38.90782 | 121.81215 | 2738 ft | 195 kts | 303° |
| 2026-05-08 00:13 | 38.91432 | 121.79715 | 2613 ft | 190 kts | 302° |
| 2026-05-08 00:14 | 38.92044 | 121.78262 | 2501 ft | 185 kts | 301° |
| 2026-05-08 00:14 | 38.92650 | 121.76804 | 2386 ft | 180 kts | 302° |
| 2026-05-08 00:14 | 38.93225 | 121.75400 | 2279 ft | 175 kts | 302° |
| 2026-05-08 00:14 | 38.93778 | 121.74050 | 2161 ft | 170 kts | 302° |
| 2026-05-08 00:15 | 38.94323 | 121.72704 | 2044 ft | 165 kts | 302° |
| 2026-05-08 00:15 | 38.94817 | 121.71403 | 1985 ft | 165 kts | 296° |
| 2026-05-08 00:15 | 38.95158 | 121.70013 | 1987 ft | 157 kts | 289° |
| 2026-05-08 00:15 | 38.95370 | 121.68651 | 1986 ft | 156 kts | 285° |
| 2026-05-08 00:16 | 38.95539 | 121.67265 | 1926 ft | 157 kts | 283° |
| 2026-05-08 00:16 | 38.95661 | 121.65889 | 1731 ft | 153 kts | 282° |
| 2026-05-08 00:16 | 38.95758 | 121.64552 | 1509 ft | 147 kts | 281° |
| 2026-05-08 00:16 | 38.95850 | 121.63289 | 1311 ft | 141 kts | 282° |
| 2026-05-08 00:17 | 38.95941 | 121.62063 | 1136 ft | 135 kts | 281° |
| 2026-05-08 00:17 | 38.96035 | 121.60854 | 977 ft | 137 kts | 281° |
| 2026-05-08 00:17 | 38.96130 | 121.59621 | 800 ft | 142 kts | 281° |
| 2026-05-08 00:17 | 38.96225 | 121.58357 | 606 ft | 140 kts | 280° |
| 2026-05-08 00:18 | 38.96318 | 121.57120 | 414 ft | 139 kts | 279° |
| 2026-05-08 00:18 | 38.96415 | 121.55868 | 232 ft | 140 kts | 279° |
| 2026-05-08 00:18 | 38.96509 | 121.54637 | 124 ft | 128 kts | 275° |
| 2026-05-08 00:18 | 38.96569 | 121.53865 | 123 ft | 58 kts | 276° |
| 2026-05-08 00:19 | 38.96600 | 121.53388 | 123 ft | 41 kts | 271° |
| 2026-05-08 00:19 | 38.96629 | 121.53044 | 123 ft | 29 kts | 275° |
| 2026-05-08 00:19 | 38.96578 | 121.52842 | 123 ft | 19 kts | 246° |
| 2026-05-08 00:19 | 38.96534 | 121.52714 | 123 ft | 11 kts | 242° |
| 2026-05-08 00:20 | 38.96495 | 121.52660 | 123 ft | 6 kts | 197° |
| 2026-05-08 00:20 | 38.96464 | 121.52684 | 123 ft | 6 kts | 136° |
| 2026-05-08 00:20 | 38.96456 | 121.52722 | 123 ft | 3 kts | 91° |
| 2026-05-08 00:20 | 38.96453 | 121.52765 | 123 ft | 5 kts | 96° |
| 2026-05-08 00:21 | 38.96449 | 121.52828 | 123 ft | 8 kts | 95° |
| 2026-05-08 00:21 | 38.96443 | 121.52911 | 123 ft | 10 kts | 95° |
| 2026-05-08 00:21 | 38.96436 | 121.53007 | 123 ft | 11 kts | 95° |
| 2026-05-08 00:21 | 38.96428 | 121.53118 | 123 ft | 12 kts | 97° |
| 2026-05-08 00:22 | 38.96401 | 121.53209 | 123 ft | 8 kts | 139° |
| 2026-05-08 00:22 | 38.96346 | 121.53243 | 123 ft | 8 kts | 171° |
| 2026-05-08 00:22 | 38.96289 | 121.53244 | 123 ft | 6 kts | 181° |
| 2026-05-08 00:22 | 38.96272 | 121.53244 | 123 ft | 0 kts | 181° |